createdAt,value
2022-11-05T00:00:05.022Z,989.79
2022-11-05T00:00:15.547Z,989.79
2022-11-05T00:00:26.036Z,989.80
2022-11-05T00:00:36.561Z,989.80
2022-11-05T00:00:47.059Z,989.80
2022-11-05T00:00:57.566Z,989.80
2022-11-05T00:01:08.084Z,989.81
2022-11-05T00:01:18.687Z,989.81
2022-11-05T00:01:29.211Z,989.81
2022-11-05T00:01:39.699Z,989.81
2022-11-05T00:01:50.270Z,989.81
2022-11-05T00:02:00.716Z,989.81
2022-11-05T00:02:11.138Z,989.81
2022-11-05T00:02:21.654Z,989.82
2022-11-05T00:02:32.168Z,989.81
2022-11-05T00:02:42.675Z,989.82
2022-11-05T00:02:53.193Z,989.82
2022-11-05T00:03:03.686Z,989.82
2022-11-05T00:03:14.375Z,989.82
2022-11-05T00:03:24.813Z,989.82
2022-11-05T00:03:35.309Z,989.83
2022-11-05T00:03:45.772Z,989.83
2022-11-05T00:03:56.318Z,989.84
2022-11-05T00:04:06.877Z,989.84
2022-11-05T00:04:17.266Z,989.84
2022-11-05T00:04:30.879Z,989.85
2022-11-05T00:04:38.283Z,989.85
2022-11-05T00:04:48.793Z,989.85
2022-11-05T00:04:59.304Z,989.85
2022-11-05T00:05:09.817Z,989.85
2022-11-05T00:05:20.317Z,989.86
2022-11-05T00:05:30.821Z,989.86
2022-11-05T00:05:41.385Z,989.86
2022-11-05T00:05:51.849Z,989.87
2022-11-05T00:06:02.356Z,989.87
2022-11-05T00:06:12.867Z,989.87
2022-11-05T00:06:23.384Z,989.87
2022-11-05T00:06:33.883Z,989.87
2022-11-05T00:06:44.393Z,989.88
2022-11-05T00:06:54.903Z,989.88
2022-11-05T00:07:05.447Z,989.88
2022-11-05T00:07:15.924Z,989.88
2022-11-05T00:07:26.440Z,989.88
2022-11-05T00:07:36.948Z,989.89
2022-11-05T00:07:47.474Z,989.89
2022-11-05T00:07:57.980Z,989.90
2022-11-05T00:08:08.485Z,989.90
2022-11-05T00:08:19.020Z,989.90
2022-11-05T00:08:29.516Z,989.90
2022-11-05T00:08:40.016Z,989.90
2022-11-05T00:08:50.531Z,989.91
2022-11-05T00:09:01.040Z,989.91
2022-11-05T00:09:11.555Z,989.91
2022-11-05T00:09:22.062Z,989.92
2022-11-05T00:09:32.579Z,989.92
2022-11-05T00:09:43.083Z,989.92
2022-11-05T00:09:53.596Z,989.92
2022-11-05T00:10:04.098Z,989.92
2022-11-05T00:10:14.620Z,989.92
2022-11-05T00:10:25.129Z,989.92
2022-11-05T00:10:35.665Z,989.92
2022-11-05T00:10:46.139Z,989.93
2022-11-05T00:10:56.657Z,989.92
2022-11-05T00:11:07.175Z,989.93
2022-11-05T00:11:18.457Z,989.93
2022-11-05T00:11:28.179Z,989.93
2022-11-05T00:11:38.689Z,989.93
2022-11-05T00:11:49.226Z,989.93
2022-11-05T00:11:59.716Z,989.93
2022-11-05T00:12:10.236Z,989.93
2022-11-05T00:12:20.736Z,989.93
2022-11-05T00:12:31.246Z,989.94
2022-11-05T00:12:41.759Z,989.94
2022-11-05T00:12:52.291Z,989.94
2022-11-05T00:13:02.783Z,989.94
2022-11-05T00:13:13.435Z,989.94
2022-11-05T00:13:23.792Z,989.94
2022-11-05T00:13:34.297Z,989.95
2022-11-05T00:13:44.814Z,989.94
2022-11-05T00:13:55.351Z,989.95
2022-11-05T00:14:05.829Z,989.95
2022-11-05T00:14:16.338Z,989.95
2022-11-05T00:14:26.850Z,989.95
2022-11-05T00:14:37.390Z,989.95
2022-11-05T00:14:47.871Z,989.96
2022-11-05T00:14:58.394Z,989.95
2022-11-05T00:15:08.892Z,989.96
2022-11-05T00:15:19.413Z,989.96
2022-11-05T00:15:29.914Z,989.96
2022-11-05T00:15:40.437Z,989.97
2022-11-05T00:15:50.936Z,989.97
2022-11-05T00:16:01.446Z,989.98
2022-11-05T00:16:11.958Z,989.98
2022-11-05T00:16:22.466Z,989.98
2022-11-05T00:16:33.008Z,989.98
2022-11-05T00:16:43.487Z,989.98
2022-11-05T00:16:54.007Z,989.98
2022-11-05T00:17:04.507Z,989.99
2022-11-05T00:17:15.016Z,989.99
2022-11-05T00:17:25.536Z,989.99
2022-11-05T00:17:36.050Z,989.99
2022-11-05T00:17:46.552Z,989.99
2022-11-05T00:17:57.097Z,989.99
2022-11-05T00:18:07.578Z,989.99
2022-11-05T00:18:18.081Z,989.99
2022-11-05T00:18:28.601Z,989.99
2022-11-05T00:18:39.112Z,989.99
2022-11-05T00:18:49.613Z,989.99
2022-11-05T00:19:00.158Z,990.00
2022-11-05T00:19:10.637Z,990.00
2022-11-05T00:19:21.151Z,990.00
2022-11-05T00:19:31.663Z,990.00
2022-11-05T00:19:42.177Z,990.00
2022-11-05T00:19:52.685Z,990.00
2022-11-05T00:20:03.197Z,990.00
2022-11-05T00:20:13.758Z,990.00
2022-11-05T00:20:24.219Z,990.01
2022-11-05T00:20:34.732Z,990.00
2022-11-05T00:20:45.240Z,990.01
2022-11-05T00:20:55.765Z,990.01
2022-11-05T00:21:06.261Z,990.01
2022-11-05T00:21:16.780Z,990.02
2022-11-05T00:21:27.292Z,990.02
2022-11-05T00:21:37.798Z,990.02
2022-11-05T00:21:48.307Z,990.02
2022-11-05T00:21:58.811Z,990.02
2022-11-05T00:22:09.348Z,990.02
2022-11-05T00:22:19.834Z,990.03
2022-11-05T00:22:30.359Z,990.03
2022-11-05T00:22:40.867Z,990.03
2022-11-05T00:22:51.367Z,990.04
2022-11-05T00:23:01.881Z,990.04
2022-11-05T00:23:12.701Z,990.05
2022-11-05T00:23:22.905Z,990.05
2022-11-05T00:23:33.446Z,990.05
2022-11-05T00:23:43.920Z,990.06
2022-11-05T00:23:54.433Z,990.06
2022-11-05T00:24:04.948Z,990.06
2022-11-05T00:24:18.167Z,990.07
2022-11-05T00:24:26.974Z,990.06
2022-11-05T00:24:36.464Z,990.06
2022-11-05T00:24:46.980Z,990.06
2022-11-05T00:24:57.501Z,990.07
2022-11-05T00:25:07.992Z,990.07
2022-11-05T00:25:18.521Z,990.07
2022-11-05T00:25:29.017Z,990.07
2022-11-05T00:25:39.521Z,990.06
2022-11-05T00:25:50.051Z,990.07
2022-11-05T00:26:00.554Z,990.06
2022-11-05T00:26:11.051Z,990.06
2022-11-05T00:26:21.564Z,990.06
2022-11-05T00:26:32.092Z,990.06
2022-11-05T00:26:42.584Z,990.06
2022-11-05T00:26:53.093Z,990.06
2022-11-05T00:27:03.615Z,990.06
2022-11-05T00:27:14.114Z,990.05
2022-11-05T00:27:24.629Z,990.05
2022-11-05T00:27:35.131Z,990.05
2022-11-05T00:27:45.641Z,990.05
2022-11-05T00:27:56.144Z,990.05
2022-11-05T00:28:06.672Z,990.06
2022-11-05T00:28:17.164Z,990.05
2022-11-05T00:28:27.676Z,990.05
2022-11-05T00:28:38.181Z,990.05
2022-11-05T00:28:48.718Z,990.05
2022-11-05T00:28:59.204Z,990.05
2022-11-05T00:29:09.714Z,990.05
2022-11-05T00:29:20.225Z,990.05
2022-11-05T00:29:30.740Z,990.05
2022-11-05T00:29:41.272Z,990.05
2022-11-05T00:29:51.790Z,990.05
2022-11-05T00:30:02.267Z,990.06
2022-11-05T00:30:12.772Z,990.05
2022-11-05T00:30:23.290Z,990.05
2022-11-05T00:30:33.801Z,990.05
2022-11-05T00:30:44.308Z,990.05
2022-11-05T00:30:54.820Z,990.05
2022-11-05T00:31:05.326Z,990.06
2022-11-05T00:31:15.848Z,990.05
2022-11-05T00:31:26.346Z,990.06
2022-11-05T00:31:36.874Z,990.06
2022-11-05T00:31:47.372Z,990.06
2022-11-05T00:31:57.874Z,990.06
2022-11-05T00:32:08.386Z,990.06
2022-11-05T00:32:18.899Z,990.05
2022-11-05T00:32:29.434Z,990.05
2022-11-05T00:32:39.915Z,990.05
2022-11-05T00:32:50.425Z,990.05
2022-11-05T00:33:00.944Z,990.05
2022-11-05T00:33:11.872Z,990.04
2022-11-05T00:33:21.952Z,990.04
2022-11-05T00:33:32.477Z,990.04
2022-11-05T00:33:42.976Z,990.04
2022-11-05T00:33:53.486Z,990.04
2022-11-05T00:34:03.994Z,990.04
2022-11-05T00:34:14.505Z,990.03
2022-11-05T00:34:25.019Z,990.04
2022-11-05T00:34:35.523Z,990.03
2022-11-05T00:34:46.034Z,990.04
2022-11-05T00:34:56.540Z,990.03
2022-11-05T00:35:07.061Z,990.03
2022-11-05T00:35:17.589Z,990.03
2022-11-05T00:35:28.072Z,990.02
2022-11-05T00:35:38.580Z,990.02
2022-11-05T00:35:49.090Z,990.03
2022-11-05T00:35:59.594Z,990.03
2022-11-05T00:36:10.198Z,990.03
2022-11-05T00:36:20.623Z,990.03
2022-11-05T00:36:31.118Z,990.02
2022-11-05T00:36:41.627Z,990.02
2022-11-05T00:36:52.136Z,990.03
2022-11-05T00:37:02.641Z,990.03
2022-11-05T00:37:13.160Z,990.03
2022-11-05T00:37:23.663Z,990.03
2022-11-05T00:37:34.193Z,990.03
2022-11-05T00:37:49.854Z,990.03
2022-11-05T00:37:56.188Z,990.03
2022-11-05T00:38:05.690Z,990.03
2022-11-05T00:38:16.201Z,990.04
2022-11-05T00:38:26.711Z,990.04
2022-11-05T00:38:37.216Z,990.04
2022-11-05T00:38:47.732Z,990.04
2022-11-05T00:38:58.236Z,990.04
2022-11-05T00:39:08.755Z,990.04
2022-11-05T00:39:19.260Z,990.05
2022-11-05T00:39:29.780Z,990.04
2022-11-05T00:39:40.279Z,990.05
2022-11-05T00:39:50.789Z,990.05
2022-11-05T00:40:01.293Z,990.04
2022-11-05T00:40:11.810Z,990.05
2022-11-05T00:40:22.324Z,990.05
2022-11-05T00:40:32.846Z,990.05
2022-11-05T00:40:43.337Z,990.05
2022-11-05T00:40:53.865Z,990.05
2022-11-05T00:41:04.359Z,990.06
2022-11-05T00:41:14.876Z,990.05
2022-11-05T00:41:25.387Z,990.06
2022-11-05T00:41:35.890Z,990.05
2022-11-05T00:41:46.402Z,990.06
2022-11-05T00:41:56.912Z,990.06
2022-11-05T00:42:07.416Z,990.05
2022-11-05T00:42:17.931Z,990.05
2022-11-05T00:42:28.482Z,990.05
2022-11-05T00:42:38.958Z,990.05
2022-11-05T00:42:49.458Z,990.05
2022-11-05T00:42:59.967Z,990.05
2022-11-05T00:43:10.778Z,990.05
2022-11-05T00:43:20.994Z,990.04
2022-11-05T00:43:31.495Z,990.05
2022-11-05T00:43:42.004Z,990.04
2022-11-05T00:43:52.521Z,990.04
2022-11-05T00:44:03.025Z,990.04
2022-11-05T00:44:13.537Z,990.04
2022-11-05T00:44:24.039Z,990.04
2022-11-05T00:44:34.547Z,990.04
2022-11-05T00:44:45.064Z,990.04
2022-11-05T00:44:55.582Z,990.04
2022-11-05T00:45:06.100Z,990.04
2022-11-05T00:45:16.599Z,990.04
2022-11-05T00:45:27.103Z,990.04
2022-11-05T00:45:37.616Z,990.05
2022-11-05T00:45:48.125Z,990.04
2022-11-05T00:45:58.634Z,990.04
2022-11-05T00:46:09.155Z,990.04
2022-11-05T00:46:19.655Z,990.05
2022-11-05T00:46:30.173Z,990.05
2022-11-05T00:46:40.780Z,990.05
2022-11-05T00:46:54.695Z,990.05
2022-11-05T00:47:02.694Z,990.06
2022-11-05T00:47:12.206Z,990.06
2022-11-05T00:47:22.713Z,990.06
2022-11-05T00:47:33.255Z,990.06
2022-11-05T00:47:43.735Z,990.07
2022-11-05T00:47:54.247Z,990.07
2022-11-05T00:48:04.755Z,990.07
2022-11-05T00:48:15.276Z,990.08
2022-11-05T00:48:25.780Z,990.08
2022-11-05T00:48:36.283Z,990.09
2022-11-05T00:48:46.807Z,990.09
2022-11-05T00:48:57.303Z,990.09
2022-11-05T00:49:07.815Z,990.09
2022-11-05T00:49:18.322Z,990.10
2022-11-05T00:49:28.858Z,990.10
2022-11-05T00:49:39.340Z,990.11
2022-11-05T00:49:49.854Z,990.11
2022-11-05T00:50:00.365Z,990.11
2022-11-05T00:50:11.050Z,990.11
2022-11-05T00:50:21.425Z,990.12
2022-11-05T00:50:31.886Z,990.12
2022-11-05T00:50:42.409Z,990.12
2022-11-05T00:50:52.913Z,990.12
2022-11-05T00:51:03.421Z,990.12
2022-11-05T00:51:13.931Z,990.13
2022-11-05T00:51:24.458Z,990.13
2022-11-05T00:51:34.946Z,990.14
2022-11-05T00:51:45.453Z,990.13
2022-11-05T00:51:55.965Z,990.14
2022-11-05T00:52:06.479Z,990.14
2022-11-05T00:52:16.984Z,990.14
2022-11-05T00:52:27.498Z,990.14
2022-11-05T00:52:38.011Z,990.14
2022-11-05T00:52:48.520Z,990.14
2022-11-05T00:52:59.112Z,990.15
2022-11-05T00:53:10.043Z,990.14
2022-11-05T00:53:20.048Z,990.15
2022-11-05T00:53:30.556Z,990.15
2022-11-05T00:53:41.061Z,990.15
2022-11-05T00:53:51.574Z,990.15
2022-11-05T00:54:02.117Z,990.15
2022-11-05T00:54:12.596Z,990.15
2022-11-05T00:54:23.096Z,990.16
2022-11-05T00:54:33.604Z,990.16
2022-11-05T00:54:44.122Z,990.16
2022-11-05T00:54:54.660Z,990.16
2022-11-05T00:55:05.131Z,990.16
2022-11-05T00:55:15.642Z,990.16
2022-11-05T00:55:26.150Z,990.16
2022-11-05T00:55:36.658Z,990.17
2022-11-05T00:55:47.183Z,990.17
2022-11-05T00:55:57.678Z,990.17
2022-11-05T00:56:08.193Z,990.17
2022-11-05T00:56:18.704Z,990.17
2022-11-05T00:56:29.205Z,990.18
2022-11-05T00:56:39.710Z,990.18
2022-11-05T00:56:50.224Z,990.18
2022-11-05T00:57:04.591Z,990.18
2022-11-05T00:57:11.252Z,990.18
2022-11-05T00:57:21.753Z,990.19
2022-11-05T00:57:32.268Z,990.19
2022-11-05T00:57:42.766Z,990.19
2022-11-05T00:57:53.278Z,990.19
2022-11-05T00:58:03.801Z,990.20
2022-11-05T00:58:14.302Z,990.20
2022-11-05T00:58:24.808Z,990.20
2022-11-05T00:58:35.324Z,990.20
2022-11-05T00:58:45.834Z,990.21
2022-11-05T00:58:56.375Z,990.21
2022-11-05T00:59:06.843Z,990.22
2022-11-05T00:59:17.358Z,990.21
2022-11-05T00:59:27.866Z,990.21
2022-11-05T00:59:38.395Z,990.22
2022-11-05T00:59:48.891Z,990.22
2022-11-05T00:59:59.428Z,990.22
2022-11-05T01:00:09.902Z,990.22
2022-11-05T01:00:20.409Z,990.22
2022-11-05T01:00:30.931Z,990.23
2022-11-05T01:00:41.466Z,990.23
2022-11-05T01:00:51.950Z,990.23
2022-11-05T01:01:02.463Z,990.23
2022-11-05T01:01:13.035Z,990.23
2022-11-05T01:01:23.613Z,990.23
2022-11-05T01:01:34.133Z,990.24
2022-11-05T01:01:44.647Z,990.23
2022-11-05T01:01:55.150Z,990.23
2022-11-05T01:02:05.638Z,990.23
2022-11-05T01:02:16.171Z,990.24
2022-11-05T01:02:26.719Z,990.24
2022-11-05T01:02:37.167Z,990.24
2022-11-05T01:02:47.682Z,990.24
2022-11-05T01:02:58.165Z,990.25
2022-11-05T01:03:09.136Z,990.25
2022-11-05T01:03:19.089Z,990.25
2022-11-05T01:03:29.604Z,990.25
2022-11-05T01:03:40.114Z,990.26
2022-11-05T01:03:52.014Z,990.26
2022-11-05T01:04:01.128Z,990.26
2022-11-05T01:04:11.646Z,990.27
2022-11-05T01:04:22.145Z,990.27
2022-11-05T01:04:32.659Z,990.28
2022-11-05T01:04:43.162Z,990.28
2022-11-05T01:04:53.679Z,990.28
2022-11-05T01:05:04.184Z,990.28
2022-11-05T01:05:14.700Z,990.28
2022-11-05T01:05:25.202Z,990.28
2022-11-05T01:05:35.723Z,990.28
2022-11-05T01:05:46.247Z,990.29
2022-11-05T01:05:56.757Z,990.28
2022-11-05T01:06:07.249Z,990.29
2022-11-05T01:06:17.753Z,990.29
2022-11-05T01:06:28.272Z,990.29
2022-11-05T01:06:38.775Z,990.29
2022-11-05T01:06:49.353Z,990.30
2022-11-05T01:06:59.800Z,990.30
2022-11-05T01:07:10.305Z,990.30
2022-11-05T01:07:20.823Z,990.30
2022-11-05T01:07:31.333Z,990.29
2022-11-05T01:07:41.841Z,990.29
2022-11-05T01:07:52.360Z,990.30
2022-11-05T01:08:02.859Z,990.29
2022-11-05T01:08:13.372Z,990.29
2022-11-05T01:08:23.885Z,990.29
2022-11-05T01:08:34.392Z,990.30
2022-11-05T01:08:44.909Z,990.30
2022-11-05T01:08:55.412Z,990.30
2022-11-05T01:09:05.925Z,990.30
2022-11-05T01:09:16.430Z,990.30
2022-11-05T01:09:26.954Z,990.30
2022-11-05T01:09:37.460Z,990.30
2022-11-05T01:09:47.966Z,990.31
2022-11-05T01:09:58.477Z,990.31
2022-11-05T01:10:08.985Z,990.31
2022-11-05T01:10:19.498Z,990.31
2022-11-05T01:10:30.006Z,990.31
2022-11-05T01:10:40.512Z,990.30
2022-11-05T01:10:51.026Z,990.30
2022-11-05T01:11:01.535Z,990.31
2022-11-05T01:11:12.044Z,990.31
2022-11-05T01:11:22.557Z,990.31
2022-11-05T01:11:33.534Z,990.31
2022-11-05T01:11:43.573Z,990.31
2022-11-05T01:11:54.112Z,990.31
2022-11-05T01:12:04.594Z,990.31
2022-11-05T01:12:15.117Z,990.31
2022-11-05T01:12:25.622Z,990.31
2022-11-05T01:12:36.131Z,990.31
2022-11-05T01:12:46.639Z,990.32
2022-11-05T01:12:57.186Z,990.32
2022-11-05T01:13:12.719Z,990.32
2022-11-05T01:13:19.840Z,990.32
2022-11-05T01:13:28.678Z,990.32
2022-11-05T01:13:39.197Z,990.33
2022-11-05T01:13:49.726Z,990.33
2022-11-05T01:14:00.212Z,990.33
2022-11-05T01:14:10.719Z,990.33
2022-11-05T01:14:21.236Z,990.33
2022-11-05T01:14:31.751Z,990.33
2022-11-05T01:14:42.268Z,990.33
2022-11-05T01:14:52.759Z,990.33
2022-11-05T01:15:03.278Z,990.33
2022-11-05T01:15:13.783Z,990.34
2022-11-05T01:15:24.311Z,990.33
2022-11-05T01:15:34.809Z,990.34
2022-11-05T01:15:45.313Z,990.34
2022-11-05T01:15:55.820Z,990.33
2022-11-05T01:16:06.331Z,990.33
2022-11-05T01:16:16.846Z,990.33
2022-11-05T01:16:27.361Z,990.33
2022-11-05T01:16:37.873Z,990.33
2022-11-05T01:16:48.405Z,990.33
2022-11-05T01:16:58.894Z,990.33
2022-11-05T01:17:09.410Z,990.33
2022-11-05T01:17:19.924Z,990.33
2022-11-05T01:17:30.424Z,990.33
2022-11-05T01:17:40.929Z,990.33
2022-11-05T01:17:51.443Z,990.33
2022-11-05T01:18:01.957Z,990.32
2022-11-05T01:18:12.471Z,990.33
2022-11-05T01:18:22.978Z,990.33
2022-11-05T01:18:33.490Z,990.32
2022-11-05T01:18:43.998Z,990.32
2022-11-05T01:18:54.527Z,990.32
2022-11-05T01:19:05.029Z,990.32
2022-11-05T01:19:15.529Z,990.32
2022-11-05T01:19:26.039Z,990.32
2022-11-05T01:19:36.559Z,990.32
2022-11-05T01:19:47.064Z,990.32
2022-11-05T01:19:57.577Z,990.33
2022-11-05T01:20:08.109Z,990.32
2022-11-05T01:20:18.602Z,990.32
2022-11-05T01:20:29.115Z,990.33
2022-11-05T01:20:39.631Z,990.33
2022-11-05T01:20:50.136Z,990.33
2022-11-05T01:21:00.648Z,990.34
2022-11-05T01:21:11.154Z,990.34
2022-11-05T01:21:21.675Z,990.34
2022-11-05T01:21:32.176Z,990.35
2022-11-05T01:21:42.698Z,990.35
2022-11-05T01:21:53.198Z,990.35
2022-11-05T01:22:03.715Z,990.35
2022-11-05T01:22:14.229Z,990.35
2022-11-05T01:22:24.733Z,990.36
2022-11-05T01:22:35.253Z,990.35
2022-11-05T01:22:45.758Z,990.36
2022-11-05T01:22:56.279Z,990.36
2022-11-05T01:23:12.985Z,990.36
2022-11-05T01:23:18.768Z,990.36
2022-11-05T01:23:27.812Z,990.36
2022-11-05T01:23:38.332Z,990.36
2022-11-05T01:23:48.827Z,990.37
2022-11-05T01:23:59.340Z,990.37
2022-11-05T01:24:09.847Z,990.37
2022-11-05T01:24:20.363Z,990.37
2022-11-05T01:24:30.870Z,990.38
2022-11-05T01:24:41.386Z,990.38
2022-11-05T01:24:51.888Z,990.38
2022-11-05T01:25:02.417Z,990.38
2022-11-05T01:25:12.909Z,990.38
2022-11-05T01:25:23.446Z,990.38
2022-11-05T01:25:33.944Z,990.38
2022-11-05T01:25:44.444Z,990.38
2022-11-05T01:25:54.969Z,990.38
2022-11-05T01:26:05.472Z,990.38
2022-11-05T01:26:15.987Z,990.39
2022-11-05T01:26:26.485Z,990.38
2022-11-05T01:26:37.009Z,990.39
2022-11-05T01:26:47.512Z,990.39
2022-11-05T01:26:58.020Z,990.39
2022-11-05T01:27:08.550Z,990.39
2022-11-05T01:27:19.061Z,990.39
2022-11-05T01:27:29.552Z,990.39
2022-11-05T01:27:40.071Z,990.39
2022-11-05T01:27:50.570Z,990.40
2022-11-05T01:28:01.078Z,990.40
2022-11-05T01:28:11.594Z,990.40
2022-11-05T01:28:22.184Z,990.40
2022-11-05T01:28:32.664Z,990.40
2022-11-05T01:28:43.166Z,990.40
2022-11-05T01:28:53.780Z,990.41
2022-11-05T01:29:04.206Z,990.40
2022-11-05T01:29:14.746Z,990.41
2022-11-05T01:29:25.175Z,990.41
2022-11-05T01:29:35.675Z,990.41
2022-11-05T01:29:46.187Z,990.41
2022-11-05T01:29:56.696Z,990.42
2022-11-05T01:30:07.204Z,990.43
2022-11-05T01:30:17.743Z,990.42
2022-11-05T01:30:28.228Z,990.43
2022-11-05T01:30:38.741Z,990.43
2022-11-05T01:30:49.248Z,990.43
2022-11-05T01:30:59.759Z,990.43
2022-11-05T01:31:10.269Z,990.43
2022-11-05T01:31:20.776Z,990.44
2022-11-05T01:31:31.310Z,990.44
2022-11-05T01:31:41.800Z,990.44
2022-11-05T01:31:52.328Z,990.44
2022-11-05T01:32:02.815Z,990.45
2022-11-05T01:32:13.337Z,990.45
2022-11-05T01:32:23.846Z,990.46
2022-11-05T01:32:34.359Z,990.46
2022-11-05T01:32:44.864Z,990.45
2022-11-05T01:32:55.369Z,990.46
2022-11-05T01:33:05.877Z,990.46
2022-11-05T01:33:16.404Z,990.46
2022-11-05T01:33:26.894Z,990.46
2022-11-05T01:33:37.410Z,990.46
2022-11-05T01:33:47.920Z,990.47
2022-11-05T01:33:58.450Z,990.47
2022-11-05T01:34:08.937Z,990.47
2022-11-05T01:34:19.455Z,990.48
2022-11-05T01:34:29.971Z,990.48
2022-11-05T01:34:40.464Z,990.48
2022-11-05T01:34:50.972Z,990.48
2022-11-05T01:35:01.518Z,990.48
2022-11-05T01:35:11.993Z,990.49
2022-11-05T01:35:22.502Z,990.49
2022-11-05T01:35:33.000Z,990.49
2022-11-05T01:35:43.527Z,990.50
2022-11-05T01:35:54.029Z,990.49
2022-11-05T01:36:04.563Z,990.50
2022-11-05T01:36:15.076Z,990.50
2022-11-05T01:36:25.553Z,990.50
2022-11-05T01:36:36.074Z,990.49
2022-11-05T01:36:46.589Z,990.50
2022-11-05T01:36:57.075Z,990.50
2022-11-05T01:37:07.587Z,990.50
2022-11-05T01:37:18.121Z,990.51
2022-11-05T01:37:28.620Z,990.51
2022-11-05T01:37:39.131Z,990.51
2022-11-05T01:37:49.630Z,990.51
2022-11-05T01:38:00.138Z,990.51
2022-11-05T01:38:10.649Z,990.51
2022-11-05T01:38:21.158Z,990.52
2022-11-05T01:38:31.668Z,990.52
2022-11-05T01:38:42.172Z,990.53
2022-11-05T01:38:52.683Z,990.53
2022-11-05T01:39:03.199Z,990.53
2022-11-05T01:39:13.702Z,990.53
2022-11-05T01:39:24.218Z,990.53
2022-11-05T01:39:34.728Z,990.54
2022-11-05T01:39:45.239Z,990.54
2022-11-05T01:39:55.743Z,990.54
2022-11-05T01:40:06.248Z,990.55
2022-11-05T01:40:16.761Z,990.56
2022-11-05T01:40:27.272Z,990.56
2022-11-05T01:40:37.785Z,990.56
2022-11-05T01:40:48.311Z,990.56
2022-11-05T01:40:58.797Z,990.57
2022-11-05T01:41:09.300Z,990.57
2022-11-05T01:41:19.821Z,990.57
2022-11-05T01:41:30.321Z,990.57
2022-11-05T01:41:40.835Z,990.57
2022-11-05T01:41:51.344Z,990.57
2022-11-05T01:42:01.857Z,990.58
2022-11-05T01:42:12.362Z,990.58
2022-11-05T01:42:22.870Z,990.58
2022-11-05T01:42:33.390Z,990.58
2022-11-05T01:42:43.895Z,990.59
2022-11-05T01:42:54.445Z,990.59
2022-11-05T01:43:04.910Z,990.59
2022-11-05T01:43:15.448Z,990.59
2022-11-05T01:43:25.927Z,990.59
2022-11-05T01:43:36.438Z,990.59
2022-11-05T01:43:46.948Z,990.59
2022-11-05T01:43:57.456Z,990.60
2022-11-05T01:44:07.959Z,990.60
2022-11-05T01:44:18.469Z,990.60
2022-11-05T01:44:28.987Z,990.60
2022-11-05T01:44:39.490Z,990.61
2022-11-05T01:44:50.005Z,990.60
2022-11-05T01:45:00.523Z,990.61
2022-11-05T01:45:11.024Z,990.61
2022-11-05T01:45:21.528Z,990.61
2022-11-05T01:45:32.038Z,990.61
2022-11-05T01:45:42.554Z,990.61
2022-11-05T01:45:53.062Z,990.61
2022-11-05T01:46:03.585Z,990.61
2022-11-05T01:46:14.085Z,990.61
2022-11-05T01:46:24.608Z,990.61
2022-11-05T01:46:35.105Z,990.61
2022-11-05T01:46:45.621Z,990.61
2022-11-05T01:46:56.226Z,990.61
2022-11-05T01:47:06.639Z,990.61
2022-11-05T01:47:17.148Z,990.61
2022-11-05T01:47:27.659Z,990.61
2022-11-05T01:47:38.172Z,990.61
2022-11-05T01:47:48.684Z,990.60
2022-11-05T01:47:59.222Z,990.61
2022-11-05T01:48:09.700Z,990.60
2022-11-05T01:48:20.207Z,990.61
2022-11-05T01:48:30.718Z,990.61
2022-11-05T01:48:41.226Z,990.61
2022-11-05T01:48:51.734Z,990.61
2022-11-05T01:49:03.498Z,990.61
2022-11-05T01:49:12.753Z,990.61
2022-11-05T01:49:23.257Z,990.61
2022-11-05T01:49:33.762Z,990.61
2022-11-05T01:49:44.271Z,990.61
2022-11-05T01:49:54.794Z,990.61
2022-11-05T01:50:05.297Z,990.61
2022-11-05T01:50:15.812Z,990.61
2022-11-05T01:50:26.345Z,990.61
2022-11-05T01:50:36.830Z,990.61
2022-11-05T01:50:47.331Z,990.61
2022-11-05T01:50:57.849Z,990.61
2022-11-05T01:51:08.351Z,990.61
2022-11-05T01:51:18.864Z,990.61
2022-11-05T01:51:29.369Z,990.61
2022-11-05T01:51:39.876Z,990.61
2022-11-05T01:51:50.389Z,990.62
2022-11-05T01:52:00.891Z,990.62
2022-11-05T01:52:11.406Z,990.62
2022-11-05T01:52:21.917Z,990.62
2022-11-05T01:52:32.425Z,990.62
2022-11-05T01:52:42.928Z,990.62
2022-11-05T01:52:53.450Z,990.62
2022-11-05T01:53:03.941Z,990.62
2022-11-05T01:53:14.472Z,990.62
2022-11-05T01:53:25.006Z,990.62
2022-11-05T01:53:35.474Z,990.63
2022-11-05T01:53:45.996Z,990.63
2022-11-05T01:53:56.496Z,990.63
2022-11-05T01:54:07.004Z,990.63
2022-11-05T01:54:17.525Z,990.64
2022-11-05T01:54:28.028Z,990.63
2022-11-05T01:54:38.536Z,990.64
2022-11-05T01:54:49.046Z,990.64
2022-11-05T01:54:59.557Z,990.65
2022-11-05T01:55:10.068Z,990.65
2022-11-05T01:55:20.570Z,990.65
2022-11-05T01:55:31.076Z,990.66
2022-11-05T01:55:41.592Z,990.65
2022-11-05T01:55:52.100Z,990.66
2022-11-05T01:56:02.610Z,990.66
2022-11-05T01:56:13.123Z,990.67
2022-11-05T01:56:23.632Z,990.67
2022-11-05T01:56:34.137Z,990.68
2022-11-05T01:56:44.652Z,990.68
2022-11-05T01:56:55.164Z,990.68
2022-11-05T01:57:05.668Z,990.68
2022-11-05T01:57:16.201Z,990.68
2022-11-05T01:57:26.684Z,990.69
2022-11-05T01:57:37.206Z,990.69
2022-11-05T01:57:47.727Z,990.69
2022-11-05T01:57:58.221Z,990.69
2022-11-05T01:58:08.738Z,990.69
2022-11-05T01:58:19.264Z,990.70
2022-11-05T01:58:29.761Z,990.70
2022-11-05T01:58:40.258Z,990.69
2022-11-05T01:58:50.786Z,990.69
2022-11-05T01:59:01.280Z,990.70
2022-11-05T01:59:11.794Z,990.70
2022-11-05T01:59:22.299Z,990.69
2022-11-05T01:59:32.802Z,990.69
2022-11-05T01:59:43.330Z,990.69
2022-11-05T01:59:53.827Z,990.69
2022-11-05T02:00:04.341Z,990.69
2022-11-05T02:00:14.842Z,990.69
2022-11-05T02:00:25.357Z,990.69
2022-11-05T02:00:35.865Z,990.69
2022-11-05T02:00:46.384Z,990.69
2022-11-05T02:00:56.886Z,990.68
2022-11-05T02:01:07.399Z,990.68
2022-11-05T02:01:18.089Z,990.68
2022-11-05T02:01:28.581Z,990.68
2022-11-05T02:01:39.082Z,990.68
2022-11-05T02:01:49.611Z,990.68
2022-11-05T02:02:00.042Z,990.68
2022-11-05T02:02:10.628Z,990.69
2022-11-05T02:02:21.084Z,990.69
2022-11-05T02:02:31.586Z,990.69
2022-11-05T02:02:42.115Z,990.68
2022-11-05T02:02:52.645Z,990.69
2022-11-05T02:03:03.074Z,990.69
2022-11-05T02:03:14.057Z,990.68
2022-11-05T02:03:24.023Z,990.68
2022-11-05T02:03:34.535Z,990.68
2022-11-05T02:03:45.041Z,990.69
2022-11-05T02:03:55.552Z,990.69
2022-11-05T02:04:06.078Z,990.69
2022-11-05T02:04:16.572Z,990.69
2022-11-05T02:04:27.081Z,990.69
2022-11-05T02:04:37.604Z,990.70
2022-11-05T02:04:48.106Z,990.70
2022-11-05T02:04:58.611Z,990.70
2022-11-05T02:05:09.124Z,990.71
2022-11-05T02:05:19.635Z,990.71
2022-11-05T02:05:30.146Z,990.71
2022-11-05T02:05:40.651Z,990.71
2022-11-05T02:05:51.165Z,990.71
2022-11-05T02:06:01.675Z,990.72
2022-11-05T02:06:12.189Z,990.72
2022-11-05T02:06:22.701Z,990.73
2022-11-05T02:06:33.213Z,990.73
2022-11-05T02:06:43.725Z,990.73
2022-11-05T02:06:54.254Z,990.73
2022-11-05T02:07:04.740Z,990.73
2022-11-05T02:07:15.253Z,990.74
2022-11-05T02:07:25.766Z,990.74
2022-11-05T02:07:36.277Z,990.74
2022-11-05T02:07:46.788Z,990.74
2022-11-05T02:08:01.071Z,990.74
2022-11-05T02:08:07.818Z,990.74
2022-11-05T02:08:18.320Z,990.73
2022-11-05T02:08:28.833Z,990.74
2022-11-05T02:08:39.340Z,990.73
2022-11-05T02:08:49.877Z,990.74
2022-11-05T02:09:00.364Z,990.74
2022-11-05T02:09:10.896Z,990.73
2022-11-05T02:09:21.387Z,990.74
2022-11-05T02:09:31.911Z,990.74
2022-11-05T02:09:42.412Z,990.73
2022-11-05T02:09:52.920Z,990.74
2022-11-05T02:10:03.432Z,990.74
2022-11-05T02:10:13.955Z,990.74
2022-11-05T02:10:24.460Z,990.74
2022-11-05T02:10:34.966Z,990.74
2022-11-05T02:10:45.481Z,990.74
2022-11-05T02:10:55.984Z,990.74
2022-11-05T02:11:06.489Z,990.74